Time;durP1;ratioP1;P1;durP2;ratioP2;P2;SDS_P1;SDS_P2;PMS_P1;PMS_P2;Temp;Humidity;BMP_temperature;BMP_pressure;BME280_temperature;BME280_humidity;BME280_pressure;Samples;Min_cycle;Max_cycle;Signal;HPM_P1;HPM_P2
2022/09/18 00:00:42;;;;;;;9.10;2.55;;;37.60;30.20;;;;;;5089785;28;20028;-63
2022/09/18 00:03:10;;;;;;;8.27;2.30;;;37.60;31.20;;;;;;5087863;28;20024;-62
2022/09/18 00:05:37;;;;;;;8.50;2.67;;;37.40;31.30;;;;;;5069999;28;20115;-65
2022/09/18 00:08:04;;;;;;;6.32;2.85;;;37.40;30.40;;;;;;5091085;28;20024;-62
2022/09/18 00:10:31;;;;;;;5.45;2.58;;;37.40;30.90;;;;;;5088460;28;20024;-62
2022/09/18 00:12:57;;;;;;;11.23;2.85;;;37.30;30.90;;;;;;5070002;28;20024;-61
2022/09/18 00:15:24;;;;;;;8.48;2.30;;;37.20;32.10;;;;;;5087169;28;20040;-63
2022/09/18 00:17:52;;;;;;;7.30;2.60;;;37.20;31.40;;;;;;5089302;28;20052;-62
2022/09/18 00:20:19;;;;;;;11.95;2.85;;;37.10;32.50;;;;;;5087630;28;20103;-62
2022/09/18 00:22:46;;;;;;;7.00;2.78;;;37.10;32.40;;;;;;5086782;28;20081;-63
2022/09/18 00:25:12;;;;;;;7.68;2.88;;;37.00;32.40;;;;;;5087366;28;20516;-63
2022/09/18 00:27:38;;;;;;;12.75;2.42;;;36.90;33.10;;;;;;5086097;28;20046;-63
2022/09/18 00:30:05;;;;;;;5.95;2.60;;;36.90;33.10;;;;;;5088296;28;20020;-64
2022/09/18 00:32:32;;;;;;;6.57;2.10;;;36.80;32.40;;;;;;5088426;28;20122;-63
2022/09/18 00:34:58;;;;;;;8.77;2.72;;;36.70;33.70;;;;;;5087775;28;20158;-63
2022/09/18 00:37:25;;;;;;;10.00;2.45;;;36.60;33.50;;;;;;5085425;28;20035;-65
2022/09/18 00:39:51;;;;;;;9.70;2.90;;;36.50;33.20;;;;;;5088125;28;20048;-63
2022/09/18 00:42:19;;;;;;;9.43;2.88;;;36.40;34.80;;;;;;5086970;28;20024;-64
2022/09/18 00:44:47;;;;;;;7.32;3.20;;;36.30;34.50;;;;;;5090662;28;20409;-65
2022/09/18 00:47:22;;;;;;;7.18;3.10;;;36.30;35.30;;;;;;5088073;28;20115;-63
2022/09/18 00:50:18;;;;;;;11.27;2.80;;;36.30;34.70;;;;;;5087414;28;20024;-62
2022/09/18 00:52:53;;;;;;;3.95;2.50;;;36.20;35.00;;;;;;5071197;28;20042;-64
2022/09/18 00:55:26;;;;;;;12.53;2.60;;;36.20;34.20;;;;;;5087197;28;20028;-62
2022/09/18 00:57:55;;;;;;;7.97;2.58;;;36.10;34.90;;;;;;5086637;28;20248;-63
2022/09/18 01:00:22;;;;;;;10.70;3.20;;;35.90;36.00;;;;;;5085764;28;20119;-62
2022/09/18 01:02:49;;;;;;;9.07;2.70;;;35.90;37.20;;;;;;5083230;28;20020;-62
2022/09/18 01:05:32;;;;;;;12.95;2.75;;;35.80;37.70;;;;;;5084695;28;20024;-63
2022/09/18 01:08:16;;;;;;;12.43;3.00;;;35.70;38.50;;;;;;5088098;28;20500;-62
2022/09/18 01:11:26;;;;;;;7.60;4.97;;;35.60;39.40;;;;;;5086719;28;20454;-62
2022/09/18 01:14:18;;;;;;;18.02;9.40;;;35.60;39.40;;;;;;5085894;28;20072;-61
2022/09/18 01:16:54;;;;;;;12.77;6.25;;;35.50;40.20;;;;;;5086416;28;20028;-62
2022/09/18 01:19:55;;;;;;;15.45;3.42;;;35.40;39.80;;;;;;5090067;28;20473;-62
2022/09/18 01:22:52;;;;;;;14.60;3.05;;;35.30;39.50;;;;;;5089937;28;20365;-63
2022/09/18 01:25:18;;;;;;;;;;;35.30;40.20;;;;;;5091337;28;20029;-63
2022/09/18 01:27:51;;;;;;;17.40;3.50;;;35.20;40.70;;;;;;5091692;28;19991;-64
2022/09/18 01:30:18;;;;;;;9.32;3.03;;;35.10;41.10;;;;;;5091800;28;20042;-62
2022/09/18 01:32:56;;;;;;;14.45;3.83;;;35.10;41.60;;;;;;5090667;28;20060;-63
2022/09/18 01:35:39;;;;;;;8.15;3.25;;;35.00;42.20;;;;;;5089601;28;20028;-64
2022/09/18 01:38:08;;;;;;;11.15;2.72;;;34.90;41.50;;;;;;5091528;28;20024;-62
2022/09/18 01:40:47;;;;;;;10.43;3.45;;;34.90;41.70;;;;;;5092393;28;20645;-61
2022/09/18 01:43:18;;;;;;;13.23;2.88;;;34.80;41.60;;;;;;5091464;28;20027;-62
2022/09/18 01:45:51;;;;;;;11.63;3.95;;;34.80;41.90;;;;;;5073070;28;20032;-62
2022/09/18 01:48:44;;;;;;;13.65;3.72;;;34.80;42.20;;;;;;5072573;28;20070;-64
2022/09/18 01:51:19;;;;;;;20.75;4.90;;;34.70;42.80;;;;;;5081629;28;20371;-61
2022/09/18 01:53:53;;;;;;;26.70;6.23;;;34.70;43.50;;;;;;5072560;28;20031;-61
2022/09/18 01:56:31;;;;;;;18.20;5.00;;;34.60;44.00;;;;;;5088327;28;20093;-61
2022/09/18 01:59:01;;;;;;;25.95;5.50;;;34.60;44.30;;;;;;5089340;28;20375;-61
2022/09/18 02:01:30;;;;;;;23.75;5.05;;;34.50;44.50;;;;;;5089049;28;20024;-63
2022/09/18 02:04:05;;;;;;;36.58;5.78;;;34.50;44.70;;;;;;5087998;28;20020;-61
2022/09/18 02:06:37;;;;;;;28.52;5.68;;;34.40;44.60;;;;;;5092510;28;20041;-62
2022/09/18 02:09:05;;;;;;;23.75;4.82;;;34.40;45.20;;;;;;5090057;28;20460;-60
2022/09/18 02:11:33;;;;;;;16.10;3.90;;;34.30;45.80;;;;;;5086589;28;20482;-61
2022/09/18 02:14:12;;;;;;;16.92;3.60;;;34.30;46.40;;;;;;5088141;28;20067;-61
2022/09/18 02:16:52;;;;;;;32.60;7.82;;;34.20;46.80;;;;;;5088671;28;20061;-60
2022/09/18 02:19:50;;;;;;;42.75;9.52;;;34.20;47.10;;;;;;5088998;28;20104;-60
2022/09/18 02:22:21;;;;;;;29.77;9.77;;;34.10;47.30;;;;;;5030882;28;20454;-60
2022/09/18 02:24:51;;;;;;;34.63;10.70;;;34.10;47.40;;;;;;5039836;28;20959;-62
2022/09/18 02:27:20;;;;;;;36.00;10.00;;;34.00;47.40;;;;;;5037934;28;20040;-61
2022/09/18 02:29:48;;;;;;;38.40;11.65;;;34.00;47.60;;;;;;5037798;28;20029;-61
2022/09/18 02:32:14;;;;;;;31.10;10.40;;;33.90;47.70;;;;;;5029929;28;20533;-60
2022/09/18 02:34:41;;;;;;;30.83;9.75;;;33.90;47.80;;;;;;5055942;28;20162;-60
2022/09/18 02:37:26;;;;;;;22.65;6.47;;;33.80;47.90;;;;;;5035907;28;20256;-60
2022/09/18 02:40:18;;;;;;;24.20;5.45;;;33.80;48.20;;;;;;5032901;28;20303;-61
2022/09/18 02:43:04;;;;;;;25.45;6.00;;;33.70;49.30;;;;;;5028881;28;20134;-62
2022/09/18 02:45:42;;;;;;;25.52;6.63;;;33.60;50.50;;;;;;5031187;28;20537;-62
2022/09/18 02:48:27;;;;;;;23.70;5.47;;;33.50;51.10;;;;;;5032032;28;20059;-61
2022/09/18 02:51:09;;;;;;;20.38;4.72;;;33.40;51.60;;;;;;5035640;28;20045;-61
2022/09/18 02:54:00;;;;;;;30.70;5.10;;;33.30;51.80;;;;;;5055551;28;20166;-61
2022/09/18 02:57:01;;;;;;;17.63;5.30;;;33.30;52.20;;;;;;5030254;28;20051;-61
2022/09/18 02:59:42;;;;;;;21.02;6.28;;;33.20;52.50;;;;;;5079405;28;20028;-59
2022/09/18 03:02:09;;;;;;;20.38;5.10;;;33.10;52.70;;;;;;5086837;28;20046;-61
2022/09/18 03:04:35;;;;;;;25.95;3.88;;;33.00;53.10;;;;;;5087479;28;20016;-61
2022/09/18 03:07:02;;;;;;;19.40;3.90;;;33.00;53.40;;;;;;5085242;28;20102;-61
2022/09/18 03:09:33;;;;;;;14.07;2.90;;;32.90;53.70;;;;;;5087382;28;20481;-61
2022/09/18 03:12:01;;;;;;;27.48;3.47;;;32.90;53.90;;;;;;5086032;28;20033;-61
2022/09/18 03:14:28;;;;;;;20.27;3.90;;;32.80;54.00;;;;;;5088122;28;20120;-60
2022/09/18 03:16:54;;;;;;;21.55;3.50;;;32.80;54.10;;;;;;5089484;28;20020;-61
2022/09/18 03:19:20;;;;;;;18.75;3.78;;;32.70;54.30;;;;;;5069923;28;20034;-62
2022/09/18 03:21:47;;;;;;;14.40;4.20;;;32.60;54.40;;;;;;5088843;28;20039;-61
2022/09/18 03:24:13;;;;;;;19.98;3.58;;;32.60;54.50;;;;;;5087642;28;20398;-61
2022/09/18 03:26:40;;;;;;;16.85;3.78;;;32.50;54.60;;;;;;5087498;28;20028;-61
2022/09/18 03:29:09;;;;;;;14.45;3.35;;;32.50;54.60;;;;;;5088464;28;20063;-60
2022/09/18 03:31:36;;;;;;;12.20;4.10;;;32.40;54.70;;;;;;5086375;28;20031;-59
2022/09/18 03:34:03;;;;;;;27.98;3.95;;;32.40;54.80;;;;;;5086631;28;20057;-60
2022/09/18 03:36:30;;;;;;;14.55;3.00;;;32.30;55.10;;;;;;5088378;28;20097;-60
2022/09/18 03:38:56;;;;;;;14.20;2.97;;;32.30;55.10;;;;;;5069644;28;20063;-60
2022/09/18 03:41:23;;;;;;;17.33;2.90;;;32.20;55.20;;;;;;5088261;28;20157;-60
2022/09/18 03:43:50;;;;;;;16.27;3.05;;;32.20;55.30;;;;;;5085679;28;20042;-60
2022/09/18 03:46:22;;;;;;;11.38;2.88;;;32.10;55.60;;;;;;5086961;28;20514;-61
2022/09/18 03:48:50;;;;;;;17.48;3.08;;;32.00;55.90;;;;;;5087476;28;20049;-60
2022/09/18 03:51:18;;;;;;;14.25;3.65;;;31.90;56.10;;;;;;5086366;28;20389;-61
2022/09/18 03:53:45;;;;;;;17.77;4.22;;;31.80;56.20;;;;;;5087378;28;20024;-61
2022/09/18 03:56:12;;;;;;;21.73;6.07;;;31.70;56.50;;;;;;5086445;28;20040;-61
2022/09/18 03:58:39;;;;;;;32.63;9.48;;;31.70;56.60;;;;;;5087234;28;20479;-61
2022/09/18 04:01:06;;;;;;;30.17;11.57;;;31.60;56.70;;;;;;5087696;28;20021;-63
2022/09/18 04:03:33;;;;;;;32.00;11.60;;;31.50;56.90;;;;;;5088709;28;20027;-63
2022/09/18 04:05:59;;;;;;;40.67;13.25;;;31.50;57.40;;;;;;5085191;28;20032;-61
2022/09/18 04:08:26;;;;;;;32.58;12.32;;;31.40;58.00;;;;;;5085734;28;20408;-61
2022/09/18 04:10:52;;;;;;;38.63;15.07;;;31.40;58.50;;;;;;5087655;28;20031;-62
2022/09/18 04:13:19;;;;;;;41.67;13.73;;;31.30;59.10;;;;;;5088184;28;20126;-61
2022/09/18 04:15:49;;;;;;;39.28;13.55;;;31.30;59.60;;;;;;5088698;28;20044;-63
2022/09/18 04:18:16;;;;;;;47.72;12.75;;;31.30;59.80;;;;;;5086993;28;20492;-61
2022/09/18 04:20:42;;;;;;;29.08;10.70;;;31.20;60.30;;;;;;5086045;28;20031;-62
2022/09/18 04:23:11;;;;;;;33.67;10.63;;;31.00;61.00;;;;;;5053985;28;20492;-61
2022/09/18 04:25:39;;;;;;;28.35;10.23;;;30.90;62.20;;;;;;5070826;28;20024;-63
2022/09/18 04:28:05;;;;;;;29.50;11.32;;;30.80;62.00;;;;;;5071602;28;20047;-65
2022/09/18 04:30:31;;;;;;;20.70;7.75;;;30.90;61.50;;;;;;5087054;28;20115;-63
2022/09/18 04:32:58;;;;;;;17.65;6.07;;;30.80;61.60;;;;;;5086582;28;20122;-62
2022/09/18 04:35:24;;;;;;;12.77;2.97;;;30.80;61.80;;;;;;5069735;28;20024;-63
2022/09/18 04:37:51;;;;;;;10.45;3.55;;;30.80;61.70;;;;;;5087146;28;20027;-62
2022/09/18 04:40:17;;;;;;;12.80;2.95;;;30.90;62.10;;;;;;5069750;28;20027;-62
2022/09/18 04:42:43;;;;;;;9.30;2.72;;;30.80;61.80;;;;;;5086383;28;20039;-62
2022/09/18 04:45:10;;;;;;;10.90;2.80;;;30.90;62.10;;;;;;5087629;28;20031;-64
2022/09/18 04:47:37;;;;;;;15.18;2.67;;;30.80;62.20;;;;;;5086370;28;20259;-64
2022/09/18 04:50:04;;;;;;;10.52;2.92;;;30.80;63.00;;;;;;5069967;28;20028;-65
2022/09/18 04:52:30;;;;;;;11.35;3.38;;;30.60;64.10;;;;;;5090065;28;20380;-62
2022/09/18 04:54:57;;;;;;;10.55;3.15;;;30.50;65.10;;;;;;5092796;28;20489;-61
2022/09/18 04:57:23;;;;;;;15.05;3.70;;;30.40;64.90;;;;;;5091886;28;20459;-62
2022/09/18 04:59:49;;;;;;;11.88;3.42;;;30.40;65.10;;;;;;5090178;28;20054;-64
2022/09/18 05:02:18;;;;;;;17.67;4.57;;;30.40;65.40;;;;;;5089744;28;20028;-61
2022/09/18 05:04:44;;;;;;;16.30;3.25;;;30.30;65.90;;;;;;5090511;28;20078;-62
2022/09/18 05:07:10;;;;;;;10.65;3.22;;;30.30;65.90;;;;;;5088813;28;20035;-62
2022/09/18 05:09:37;;;;;;;13.27;3.65;;;30.20;66.20;;;;;;5089676;28;20119;-63
2022/09/18 05:12:03;;;;;;;13.00;3.75;;;30.20;67.40;;;;;;5073769;28;20028;-62
2022/09/18 05:14:30;;;;;;;13.15;3.30;;;30.20;67.40;;;;;;5092232;28;20043;-61
2022/09/18 05:16:56;;;;;;;13.20;3.72;;;30.10;67.30;;;;;;5090659;28;20366;-64
2022/09/18 05:19:23;;;;;;;10.85;3.88;;;30.10;67.90;;;;;;5091232;28;20600;-62
2022/09/18 05:21:50;;;;;;;19.13;3.92;;;30.00;68.30;;;;;;5058069;28;20035;-61
2022/09/18 05:24:17;;;;;;;18.60;3.75;;;30.00;68.70;;;;;;5099832;28;20028;-62
2022/09/18 05:26:44;;;;;;;9.95;3.63;;;30.00;69.00;;;;;;5092451;28;20081;-59
2022/09/18 05:29:11;;;;;;;13.25;3.90;;;29.90;69.40;;;;;;5089444;28;20554;-61
2022/09/18 05:31:37;;;;;;;16.92;4.13;;;29.90;69.40;;;;;;5093039;28;20020;-63
2022/09/18 05:34:04;;;;;;;11.65;3.55;;;29.80;69.80;;;;;;5073930;28;20083;-62
2022/09/18 05:36:30;;;;;;;49.35;39.33;;;29.80;70.10;;;;;;5089871;28;20058;-62
2022/09/18 05:38:56;;;;;;;88.45;68.65;;;29.80;71.00;;;;;;5089964;28;20032;-62
2022/09/18 05:41:23;;;;;;;14.52;5.80;;;29.70;71.10;;;;;;5074011;28;20551;-57
2022/09/18 05:43:49;;;;;;;11.95;5.65;;;29.70;71.20;;;;;;5091291;28;20027;-61
2022/09/18 05:46:16;;;;;;;13.98;4.32;;;29.70;71.30;;;;;;5090367;28;20024;-62
2022/09/18 05:48:43;;;;;;;20.15;4.90;;;29.60;71.60;;;;;;5090813;28;20119;-62
2022/09/18 05:51:10;;;;;;;21.35;6.70;;;29.60;71.00;;;;;;5090315;28;20020;-61
2022/09/18 05:53:36;;;;;;;20.50;6.47;;;29.30;62.10;;;;;;5090583;28;20031;-62
2022/09/18 05:56:02;;;;;;;18.75;7.45;;;29.30;59.80;;;;;;5090742;28;20036;-64
2022/09/18 05:58:29;;;;;;;15.93;7.50;;;29.30;58.10;;;;;;5094059;28;20024;-63
2022/09/18 06:01:00;;;;;;;20.52;6.63;;;29.30;55.40;;;;;;5091177;28;20473;-62
2022/09/18 06:03:27;;;;;;;19.13;6.80;;;29.30;52.50;;;;;;5088492;28;20031;-61
2022/09/18 06:05:54;;;;;;;10.70;5.75;;;29.30;51.40;;;;;;5073792;28;20059;-62
2022/09/18 06:08:21;;;;;;;21.25;6.75;;;29.20;50.90;;;;;;5089895;28;20115;-62
2022/09/18 06:10:48;;;;;;;16.23;6.55;;;29.20;50.70;;;;;;5090359;28;20036;-62
2022/09/18 06:13:17;;;;;;;15.88;5.68;;;29.20;50.30;;;;;;5091335;28;20554;-62
2022/09/18 06:15:45;;;;;;;20.35;6.60;;;29.10;49.60;;;;;;5091447;28;20051;-62
2022/09/18 06:18:13;;;;;;;13.93;5.95;;;29.00;48.60;;;;;;5089718;28;20031;-61
2022/09/18 06:20:41;;;;;;;16.23;6.00;;;28.90;48.70;;;;;;5088910;28;20025;-64
2022/09/18 06:23:08;;;;;;;13.25;6.38;;;28.90;48.50;;;;;;5089576;28;20024;-63
2022/09/18 06:25:35;;;;;;;12.82;5.55;;;28.80;48.70;;;;;;5090706;28;20417;-63
2022/09/18 06:28:02;;;;;;;13.93;5.88;;;28.90;48.60;;;;;;5094708;28;20017;-62
2022/09/18 06:30:30;;;;;;;16.63;6.07;;;28.80;48.70;;;;;;5091460;28;20050;-63
2022/09/18 06:33:06;;;;;;;17.95;6.40;;;28.70;48.30;;;;;;5089930;28;20063;-63
2022/09/18 06:35:33;;;;;;;14.80;6.53;;;28.70;48.50;;;;;;5089951;28;20054;-61
2022/09/18 06:38:04;;;;;;;15.15;6.05;;;28.70;48.50;;;;;;5089242;28;20028;-62
2022/09/18 06:40:31;;;;;;;13.98;6.40;;;28.60;48.50;;;;;;5072454;28;20111;-62
2022/09/18 06:42:58;;;;;;;16.92;6.45;;;28.50;48.70;;;;;;5089882;28;20043;-62
2022/09/18 06:45:26;;;;;;;23.75;6.50;;;28.40;48.80;;;;;;5088569;28;20020;-62
2022/09/18 06:47:54;;;;;;;18.92;6.10;;;28.40;48.70;;;;;;5072649;28;20052;-61
2022/09/18 06:50:24;;;;;;;19.17;6.72;;;28.40;49.00;;;;;;5090480;28;20072;-61
2022/09/18 06:52:51;;;;;;;17.80;6.45;;;28.50;48.80;;;;;;5089217;28;20028;-61
2022/09/18 06:55:18;;;;;;;19.35;6.25;;;28.40;48.50;;;;;;5091713;28;20430;-62
2022/09/18 06:57:59;;;;;;;19.75;6.38;;;28.40;48.90;;;;;;5090565;28;20043;-63
2022/09/18 07:00:26;;;;;;;19.35;6.55;;;28.40;49.00;;;;;;5092008;28;20523;-63
2022/09/18 07:03:01;;;;;;;20.23;6.90;;;28.40;49.40;;;;;;5089330;28;20486;-62
2022/09/18 07:05:30;;;;;;;23.25;6.30;;;28.30;49.90;;;;;;5089846;28;20062;-60
2022/09/18 07:07:56;;;;;;;23.88;6.97;;;28.30;49.60;;;;;;5093407;28;20032;-63
2022/09/18 07:10:24;;;;;;;26.83;6.95;;;28.30;50.00;;;;;;5070141;28;20035;-63
2022/09/18 07:13:01;;;;;;;23.90;6.28;;;28.30;50.20;;;;;;5088413;28;20482;-61
2022/09/18 07:15:28;;;;;;;17.05;6.32;;;28.30;50.30;;;;;;5086816;28;20179;-64
2022/09/18 07:17:59;;;;;;;18.52;6.72;;;28.20;50.40;;;;;;5088513;28;20420;-62
2022/09/18 07:20:25;;;;;;;16.55;6.13;;;28.20;50.70;;;;;;5089274;28;20023;-62
2022/09/18 07:22:54;;;;;;;25.85;6.75;;;28.10;50.80;;;;;;5088410;28;20027;-63
2022/09/18 07:25:21;;;;;;;14.73;5.93;;;28.00;51.00;;;;;;5072433;28;20394;-63
2022/09/18 07:27:48;;;;;;;15.85;5.65;;;28.10;50.90;;;;;;5090654;28;20020;-61
2022/09/18 07:30:15;;;;;;;18.25;5.55;;;28.00;50.80;;;;;;5088796;28;20044;-61
2022/09/18 07:32:41;;;;;;;15.02;5.82;;;27.90;51.20;;;;;;5087050;28;20443;-63
2022/09/18 07:35:09;;;;;;;22.58;6.18;;;27.90;50.90;;;;;;5089009;28;20040;-62
2022/09/18 07:37:36;;;;;;;32.65;6.60;;;27.90;50.80;;;;;;5087694;28;20028;-64
2022/09/18 07:40:03;;;;;;;19.42;5.85;;;27.90;50.70;;;;;;5095464;28;20058;-61
2022/09/18 07:42:30;;;;;;;25.50;6.43;;;27.90;50.90;;;;;;5086821;28;20389;-62
2022/09/18 07:44:56;;;;;;;19.15;6.82;;;27.90;51.00;;;;;;5092230;28;20039;-61
2022/09/18 07:47:26;;;;;;;25.73;5.88;;;27.90;50.80;;;;;;5092920;28;20103;-62
2022/09/18 07:49:53;;;;;;;25.48;7.40;;;27.80;51.10;;;;;;5071188;28;20024;-62
2022/09/18 07:52:20;;;;;;;19.42;6.47;;;27.80;51.80;;;;;;5087275;28;20031;-62
2022/09/18 07:54:47;;;;;;;16.25;5.40;;;27.80;51.50;;;;;;5086180;28;20020;-61
2022/09/18 07:57:13;;;;;;;17.02;5.80;;;27.80;51.60;;;;;;5086848;28;20038;-63
2022/09/18 07:59:39;;;;;;;15.30;5.78;;;27.80;51.10;;;;;;5087366;28;20432;-63
2022/09/18 08:02:06;;;;;;;21.58;6.60;;;27.80;51.70;;;;;;5087331;28;20028;-62
2022/09/18 08:04:32;;;;;;;20.58;6.82;;;27.90;51.30;;;;;;5069672;28;20027;-62
2022/09/18 08:07:02;;;;;;;18.23;5.55;;;27.90;51.00;;;;;;5092713;28;20063;-63
2022/09/18 08:09:29;;;;;;;17.02;5.50;;;27.90;51.10;;;;;;5086504;28;20034;-62
2022/09/18 08:11:55;;;;;;;18.17;5.82;;;27.90;51.10;;;;;;5087779;28;20383;-62
2022/09/18 08:14:21;;;;;;;15.18;6.18;;;27.90;51.10;;;;;;5085987;28;20536;-62
2022/09/18 08:16:48;;;;;;;18.83;5.68;;;27.90;51.40;;;;;;5083098;28;20386;-64
2022/09/18 08:19:14;;;;;;;21.20;6.18;;;27.90;52.30;;;;;;5086540;28;20649;-62
2022/09/18 08:21:40;;;;;;;19.63;6.38;;;27.80;51.80;;;;;;5070235;28;20024;-61
2022/09/18 08:24:07;;;;;;;23.55;6.80;;;27.80;52.00;;;;;;5087755;28;20020;-62
2022/09/18 08:26:37;;;;;;;18.75;5.70;;;27.70;52.10;;;;;;5087047;28;20027;-62
2022/09/18 08:29:05;;;;;;;16.50;5.78;;;27.70;52.00;;;;;;5087450;28;20032;-63
2022/09/18 08:31:31;;;;;;;19.48;5.32;;;27.60;51.90;;;;;;5070562;28;20024;-62
2022/09/18 08:33:57;;;;;;;17.52;5.68;;;27.60;52.20;;;;;;5088639;28;20036;-62
2022/09/18 08:36:24;;;;;;;15.43;5.13;;;27.60;52.50;;;;;;5087481;28;20065;-61
2022/09/18 08:38:54;;;;;;;20.27;5.85;;;27.60;52.60;;;;;;5087103;28;20539;-62
2022/09/18 08:41:34;;;;;;;18.63;5.18;;;27.60;52.30;;;;;;5086145;28;20477;-62
2022/09/18 08:44:17;;;;;;;18.20;5.63;;;27.60;53.20;;;;;;5087199;28;20428;-61
2022/09/18 08:46:51;;;;;;;17.10;5.43;;;27.50;52.70;;;;;;5086460;28;20031;-62
2022/09/18 08:49:23;;;;;;;16.48;5.47;;;27.40;53.60;;;;;;5086816;28;20055;-62
2022/09/18 08:51:53;;;;;;;16.25;6.53;;;27.40;52.90;;;;;;5088090;28;20474;-64
2022/09/18 08:54:46;;;;;;;21.00;6.05;;;27.30;52.80;;;;;;5087086;28;20086;-62
2022/09/18 08:57:26;;;;;;;16.13;5.50;;;27.30;53.30;;;;;;5085732;28;20042;-63
2022/09/18 09:00:08;;;;;;;17.27;5.18;;;27.20;53.00;;;;;;5086407;28;20115;-61
2022/09/18 09:02:37;;;;;;;18.88;5.72;;;27.20;53.10;;;;;;5086185;28;20020;-61
2022/09/18 09:05:21;;;;;;;20.50;5.60;;;27.20;53.20;;;;;;5085558;28;20034;-63
2022/09/18 09:08:00;;;;;;;15.57;6.13;;;27.20;53.30;;;;;;5089886;28;20024;-60
2022/09/18 09:10:35;;;;;;;17.38;5.72;;;27.00;53.70;;;;;;5085942;28;20055;-64
2022/09/18 09:13:28;;;;;;;15.20;5.47;;;26.90;54.10;;;;;;5085419;28;20031;-62
2022/09/18 09:16:04;;;;;;;16.10;5.60;;;26.90;53.70;;;;;;5085423;28;20045;-62
2022/09/18 09:18:52;;;;;;;15.70;5.78;;;26.90;55.00;;;;;;5084287;28;20507;-62
2022/09/18 09:21:42;;;;;;;19.10;5.38;;;26.80;54.10;;;;;;5084787;28;20148;-62
2022/09/18 09:24:32;;;;;;;20.70;5.85;;;26.80;54.50;;;;;;5060521;28;20036;-62
2022/09/18 09:27:05;;;;;;;17.63;6.03;;;26.80;54.50;;;;;;5085123;28;20041;-62
2022/09/18 09:29:36;;;;;;;23.48;6.32;;;26.70;54.40;;;;;;5087452;28;20024;-65
2022/09/18 09:32:29;;;;;;;16.88;5.35;;;26.70;54.00;;;;;;5085782;28;20021;-64
2022/09/18 09:35:15;;;;;;;17.38;5.68;;;26.70;53.70;;;;;;5068460;28;20039;-64
2022/09/18 09:37:46;;;;;;;11.87;5.13;;;26.70;53.70;;;;;;5087319;28;20079;-63
2022/09/18 09:40:31;;;;;;;19.27;6.03;;;26.60;53.80;;;;;;5070378;28;20024;-61
2022/09/18 09:43:18;;;;;;;19.90;6.30;;;26.60;54.10;;;;;;5090672;28;20086;-61
2022/09/18 09:45:48;;;;;;;17.98;6.22;;;26.60;54.40;;;;;;5090587;28;20508;-61
2022/09/18 09:48:33;;;;;;;20.13;6.25;;;26.50;54.40;;;;;;5089898;28;20133;-62
2022/09/18 09:51:15;;;;;;;18.90;6.38;;;26.50;54.60;;;;;;5088716;28;20081;-62
2022/09/18 09:53:41;;;;;;;21.42;6.47;;;26.40;55.40;;;;;;5089418;28;20052;-62
2022/09/18 09:56:31;;;;;;;23.58;6.97;;;26.40;56.60;;;;;;5089816;28;20196;-59
2022/09/18 09:59:19;;;;;;;21.17;6.53;;;26.30;56.30;;;;;;5072895;28;20037;-62
2022/09/18 10:02:21;;;;;;;21.20;6.47;;;26.20;56.50;;;;;;5089962;28;20020;-62
2022/09/18 10:05:13;;;;;;;18.98;6.63;;;26.20;56.10;;;;;;5083740;28;20065;-64
2022/09/18 10:08:21;;;;;;;20.17;6.15;;;26.30;55.70;;;;;;5011588;28;20060;-63
2022/09/18 10:10:55;;;;;;;22.77;6.55;;;26.20;55.30;;;;;;5011054;28;20148;-62
2022/09/18 10:13:32;;;;;;;27.23;6.20;;;26.20;54.80;;;;;;5011853;28;20089;-65
2022/09/18 10:16:21;;;;;;;22.00;6.85;;;26.20;54.80;;;;;;5011136;28;20067;-62
2022/09/18 10:18:49;;;;;;;18.38;6.50;;;26.10;54.70;;;;;;5010936;28;20207;-62
2022/09/18 10:21:18;;;;;;;18.63;6.45;;;26.10;55.20;;;;;;5009685;28;20147;-62
2022/09/18 10:24:04;;;;;;;20.67;6.70;;;26.10;56.00;;;;;;5011286;28;20060;-64
2022/09/18 10:26:43;;;;;;;29.65;7.70;;;26.10;55.60;;;;;;5008942;28;20145;-63
2022/09/18 10:29:10;;;;;;;19.00;6.13;;;26.10;55.80;;;;;;5028573;28;20039;-64
2022/09/18 10:31:57;;;;;;;27.92;8.10;;;26.00;57.10;;;;;;5012580;28;20044;-63
2022/09/18 10:34:47;;;;;;;27.90;7.10;;;25.90;56.20;;;;;;5009428;28;20540;-62
2022/09/18 10:37:40;;;;;;;21.55;8.13;;;25.90;57.20;;;;;;5027832;28;20088;-63
2022/09/18 10:40:31;;;;;;;31.48;9.32;;;25.70;56.20;;;;;;5019965;28;20052;-63
2022/09/18 10:42:58;;;;;;;20.67;7.70;;;25.70;56.70;;;;;;5028605;28;20526;-62
2022/09/18 10:45:32;;;;;;;22.17;7.25;;;25.70;56.70;;;;;;5079989;28;20060;-64
2022/09/18 10:48:13;;;;;;;32.17;8.05;;;25.70;55.90;;;;;;5090475;28;20051;-62
2022/09/18 10:50:51;;;;;;;22.50;6.30;;;25.70;54.60;;;;;;5070022;28;20037;-62
2022/09/18 10:53:27;;;;;;;18.85;6.63;;;25.60;53.70;;;;;;5088054;28;20028;-62
2022/09/18 10:55:53;;;;;;;23.73;6.57;;;25.70;54.40;;;;;;5088777;28;20163;-62
2022/09/18 10:58:28;;;;;;;16.80;6.75;;;25.70;53.50;;;;;;5089087;28;20039;-62
2022/09/18 11:01:01;;;;;;;20.17;6.22;;;25.70;53.00;;;;;;5089243;28;20016;-62
2022/09/18 11:03:48;;;;;;;20.73;6.10;;;25.70;52.90;;;;;;5086905;28;20392;-63
2022/09/18 11:06:19;;;;;;;;;;;25.70;53.10;;;;;;5089456;28;20038;-63
2022/09/18 11:08:49;;;;;;;24.35;6.28;;;25.70;53.60;;;;;;5090797;28;19965;-62
2022/09/18 11:11:25;;;;;;;22.38;5.55;;;25.70;52.90;;;;;;5087560;28;20042;-62
2022/09/18 11:14:01;;;;;;;16.08;5.05;;;25.70;53.30;;;;;;5088599;28;20039;-63
2022/09/18 11:16:35;;;;;;;19.13;5.22;;;25.60;53.10;;;;;;5086749;28;20090;-63
2022/09/18 11:19:28;;;;;;;15.15;5.60;;;25.60;53.40;;;;;;5085086;28;20108;-63
2022/09/18 11:22:00;;;;;;;14.32;4.95;;;25.60;52.60;;;;;;5079097;28;20490;-62
2022/09/18 11:24:32;;;;;;;15.70;4.65;;;25.50;52.30;;;;;;5087473;28;20118;-62
2022/09/18 11:27:14;;;;;;;13.10;4.53;;;25.50;52.40;;;;;;5087902;28;21339;-64
2022/09/18 11:29:41;;;;;;;14.43;4.50;;;25.50;51.40;;;;;;5088876;28;20035;-62
2022/09/18 11:32:16;;;;;;;10.70;3.70;;;25.50;50.50;;;;;;5089756;28;20339;-61
2022/09/18 11:35:02;;;;;;;17.48;5.28;;;25.50;49.90;;;;;;5089805;28;20062;-62
2022/09/18 11:37:52;;;;;;;19.45;4.50;;;25.50;50.30;;;;;;5090963;28;20040;-61
2022/09/18 11:40:24;;;;;;;12.52;4.05;;;25.40;49.30;;;;;;5086025;28;20051;-61
2022/09/18 11:42:53;;;;;;;12.43;4.35;;;25.40;50.00;;;;;;5085644;28;20149;-62
2022/09/18 11:45:37;;;;;;;13.10;4.07;;;25.40;49.40;;;;;;5089607;28;20171;-63
2022/09/18 11:48:11;;;;;;;11.20;4.10;;;25.30;49.70;;;;;;5085333;28;20051;-63
2022/09/18 11:50:38;;;;;;;8.35;3.50;;;25.20;51.30;;;;;;5086677;28;20054;-62
2022/09/18 11:53:23;;;;;;;14.27;4.38;;;25.20;51.10;;;;;;5085519;28;20037;-62
2022/09/18 11:56:00;;;;;;;9.77;4.15;;;25.30;50.30;;;;;;5087130;28;20050;-62
2022/09/18 11:58:33;;;;;;;9.75;4.30;;;25.30;50.70;;;;;;5086586;28;20030;-60
2022/09/18 12:01:14;;;;;;;9.05;3.97;;;25.20;50.40;;;;;;5087980;28;20056;-63
2022/09/18 12:03:50;;;;;;;12.68;4.18;;;25.20;50.30;;;;;;5070088;28;20042;-63
2022/09/18 12:06:40;;;;;;;9.00;4.15;;;25.00;50.70;;;;;;5088464;28;20052;-63
2022/09/18 12:09:14;;;;;;;10.30;4.03;;;25.00;50.70;;;;;;5088924;28;20085;-62
2022/09/18 12:11:51;;;;;;;12.40;4.00;;;24.90;50.90;;;;;;5088046;28;20041;-62
2022/09/18 12:14:34;;;;;;;17.00;5.07;;;24.80;52.90;;;;;;5086850;28;20061;-62
2022/09/18 12:17:27;;;;;;;13.40;4.85;;;24.70;54.00;;;;;;5085485;28;20065;-62
2022/09/18 12:20:01;;;;;;;13.27;4.25;;;24.70;52.20;;;;;;5088650;28;20064;-62
2022/09/18 12:22:50;;;;;;;17.92;4.53;;;24.80;52.10;;;;;;5086976;28;20041;-62
2022/09/18 12:25:21;;;;;;;12.15;5.05;;;24.80;52.20;;;;;;5087550;28;20038;-64
2022/09/18 12:28:14;;;;;;;15.90;4.35;;;24.70;52.30;;;;;;5086654;28;20044;-62
2022/09/18 12:30:58;;;;;;;10.20;3.83;;;24.80;52.70;;;;;;5088913;28;20046;-62
2022/09/18 12:33:41;;;;;;;20.48;5.72;;;24.60;52.90;;;;;;5070285;28;20133;-62
2022/09/18 12:36:44;;;;;;;20.50;5.03;;;24.60;53.50;;;;;;5086855;28;20417;-64
2022/09/18 12:39:29;;;;;;;13.70;4.60;;;24.60;53.50;;;;;;5086559;28;20412;-61
2022/09/18 12:42:17;;;;;;;14.05;4.38;;;24.50;53.50;;;;;;5087448;28;20060;-63
2022/09/18 12:44:52;;;;;;;18.20;5.40;;;24.50;54.30;;;;;;5086664;28;20035;-61
2022/09/18 12:47:31;;;;;;;18.60;5.43;;;24.40;54.50;;;;;;5086314;28;20058;-62
2022/09/18 12:50:34;;;;;;;20.83;5.18;;;24.50;54.30;;;;;;5085507;28;20549;-61
2022/09/18 12:53:35;;;;;;;22.83;5.28;;;24.50;54.50;;;;;;5085525;28;20046;-61
2022/09/18 12:56:06;;;;;;;15.32;5.38;;;24.50;55.00;;;;;;5086561;28;20524;-62
2022/09/18 12:58:59;;;;;;;12.50;4.93;;;24.50;54.80;;;;;;5069292;28;20058;-63
2022/09/18 13:01:40;;;;;;;16.27;4.72;;;24.40;55.00;;;;;;5072966;28;20037;-61
2022/09/18 13:04:30;;;;;;;18.33;4.50;;;24.20;55.40;;;;;;5086064;28;20039;-62
2022/09/18 13:07:10;;;;;;;15.63;4.60;;;24.30;55.50;;;;;;5088370;28;20066;-62
2022/09/18 13:09:59;;;;;;;14.52;5.18;;;24.30;55.50;;;;;;5085694;28;20142;-61